createdAt,value
2017-09-03T00:00:43.126Z,78.30
2017-09-03T00:03:10.737Z,78.30
2017-09-03T00:05:38.344Z,78.60
2017-09-03T00:08:05.978Z,79.40
2017-09-03T00:10:33.568Z,80.60
2017-09-03T00:13:01.195Z,80.90
2017-09-03T00:15:28.823Z,79.90
2017-09-03T00:17:56.437Z,79.40
2017-09-03T00:20:24.059Z,80.00
2017-09-03T00:22:51.679Z,80.40
2017-09-03T00:25:19.275Z,80.40
2017-09-03T00:27:46.896Z,80.60
2017-09-03T00:30:14.514Z,81.10
2017-09-03T00:32:42.143Z,81.10
2017-09-03T00:35:09.758Z,80.90
2017-09-03T00:37:37.377Z,80.70
2017-09-03T00:40:05.003Z,80.90
2017-09-03T00:42:32.600Z,80.00
2017-09-03T00:45:00.980Z,80.00
2017-09-03T00:47:28.586Z,80.10
2017-09-03T00:49:56.986Z,80.70
2017-09-03T00:52:24.588Z,80.70
2017-09-03T00:54:52.217Z,81.20
2017-09-03T00:57:20.584Z,81.00
2017-09-03T00:59:48.196Z,81.00
2017-09-03T01:02:15.807Z,81.50
2017-09-03T01:04:43.428Z,81.40
2017-09-03T01:07:11.027Z,81.00
2017-09-03T01:09:38.662Z,81.00
2017-09-03T01:12:06.252Z,80.50
2017-09-03T01:14:33.885Z,80.70
2017-09-03T01:17:01.469Z,80.40
2017-09-03T01:19:29.077Z,80.30
2017-09-03T01:21:56.690Z,80.30
2017-09-03T01:24:24.280Z,80.50
2017-09-03T01:26:51.930Z,80.40
2017-09-03T01:29:19.539Z,79.80
2017-09-03T01:31:47.170Z,79.60
2017-09-03T01:34:14.782Z,80.40
2017-09-03T01:36:42.416Z,81.00
2017-09-03T01:39:10.003Z,81.30
2017-09-03T01:41:38.397Z,79.50
2017-09-03T01:44:05.987Z,79.50
2017-09-03T01:46:34.052Z,78.90
2017-09-03T01:49:01.643Z,79.00
2017-09-03T01:51:29.278Z,78.30
2017-09-03T01:53:56.882Z,78.40
2017-09-03T01:56:25.283Z,79.00
2017-09-03T01:58:53.636Z,79.10
2017-09-03T02:01:21.255Z,79.10
2017-09-03T02:03:48.847Z,78.70
2017-09-03T02:06:16.444Z,78.90
2017-09-03T02:08:44.069Z,79.20
2017-09-03T02:11:12.333Z,79.10
2017-09-03T02:13:39.969Z,78.30
2017-09-03T02:16:07.575Z,78.70
2017-09-03T02:18:36.271Z,79.30
2017-09-03T02:21:03.860Z,79.70
2017-09-03T02:23:31.497Z,80.10
2017-09-03T02:25:59.113Z,79.20
2017-09-03T02:28:26.726Z,79.60
2017-09-03T02:30:54.334Z,80.00
2017-09-03T02:33:21.948Z,80.30
2017-09-03T02:35:50.304Z,80.10
2017-09-03T02:38:17.920Z,80.10
2017-09-03T02:40:45.524Z,80.10
2017-09-03T02:43:13.140Z,80.60
2017-09-03T02:45:40.735Z,79.60
2017-09-03T02:48:08.364Z,80.50
2017-09-03T02:50:35.974Z,80.00
2017-09-03T02:53:03.600Z,79.60
2017-09-03T02:55:31.301Z,79.60
2017-09-03T02:57:59.665Z,80.10
2017-09-03T03:00:27.306Z,79.30
2017-09-03T03:02:54.888Z,79.60
2017-09-03T03:05:22.527Z,79.90
2017-09-03T03:07:50.123Z,80.50
2017-09-03T03:10:17.742Z,80.10
2017-09-03T03:12:45.345Z,80.20
2017-09-03T03:15:12.978Z,80.50
2017-09-03T03:17:40.606Z,79.90
2017-09-03T03:20:08.231Z,78.70
2017-09-03T03:22:35.874Z,78.80
2017-09-03T03:25:03.502Z,79.10
2017-09-03T03:27:31.104Z,79.40
2017-09-03T03:29:58.738Z,79.80
2017-09-03T03:32:26.334Z,80.00
2017-09-03T03:34:53.949Z,80.00
2017-09-03T03:37:21.565Z,80.00
2017-09-03T03:39:49.939Z,79.60
2017-09-03T03:42:17.545Z,79.60
2017-09-03T03:44:45.181Z,79.30
2017-09-03T03:47:12.780Z,79.90
2017-09-03T03:49:40.409Z,79.90
2017-09-03T03:52:08.026Z,80.20
2017-09-03T03:54:35.637Z,80.10
2017-09-03T03:57:03.261Z,79.70
2017-09-03T03:59:30.891Z,79.10
2017-09-03T04:01:58.504Z,79.50
2017-09-03T04:04:26.107Z,80.00
2017-09-03T04:06:53.714Z,79.60
2017-09-03T04:09:21.327Z,79.20
2017-09-03T04:11:48.958Z,78.20
2017-09-03T04:14:16.552Z,78.20
2017-09-03T04:16:44.159Z,79.00
2017-09-03T04:19:11.787Z,78.50
2017-09-03T04:21:39.413Z,78.50
2017-09-03T04:24:07.020Z,79.70
2017-09-03T04:26:34.652Z,79.30
2017-09-03T04:29:02.758Z,78.50
2017-09-03T04:31:31.140Z,78.20
2017-09-03T04:33:58.754Z,78.00
2017-09-03T04:36:26.380Z,78.40
2017-09-03T04:38:53.980Z,78.20
2017-09-03T04:41:21.614Z,78.50
2017-09-03T04:43:50.421Z,78.20
2017-09-03T04:46:18.008Z,78.50
2017-09-03T04:48:45.624Z,78.50
2017-09-03T04:51:13.220Z,78.90
2017-09-03T04:53:40.852Z,79.00
2017-09-03T04:56:08.458Z,78.70
2017-09-03T04:58:36.071Z,79.30
2017-09-03T05:01:03.668Z,79.70
2017-09-03T05:03:31.355Z,79.90
2017-09-03T05:05:58.939Z,80.30
2017-09-03T05:08:26.578Z,80.90
2017-09-03T05:10:55.969Z,80.00
2017-09-03T05:13:23.595Z,79.60
2017-09-03T05:15:51.187Z,79.70
2017-09-03T05:18:18.792Z,78.50
2017-09-03T05:20:47.181Z,79.10
2017-09-03T05:23:14.801Z,79.10
2017-09-03T05:25:43.159Z,79.00
2017-09-03T05:28:10.840Z,78.90
2017-09-03T05:30:38.444Z,79.10
2017-09-03T05:33:06.079Z,79.50
2017-09-03T05:35:33.676Z,79.10
2017-09-03T05:38:01.280Z,78.70
2017-09-03T05:40:30.207Z,78.20
2017-09-03T05:42:57.816Z,78.40
2017-09-03T05:45:26.112Z,79.00
2017-09-03T05:47:53.757Z,79.30
2017-09-03T05:50:22.459Z,79.50
2017-09-03T05:52:50.828Z,79.30
2017-09-03T05:55:18.489Z,79.30
2017-09-03T05:57:46.894Z,78.40
2017-09-03T06:00:15.286Z,78.30
2017-09-03T06:02:42.871Z,78.30
2017-09-03T06:05:10.488Z,78.30
2017-09-03T06:07:38.078Z,78.60
2017-09-03T06:10:05.694Z,78.70
2017-09-03T06:12:33.301Z,77.90
2017-09-03T06:15:00.937Z,76.80
2017-09-03T06:17:28.527Z,77.00
2017-09-03T06:19:56.144Z,77.70
2017-09-03T06:22:24.529Z,77.90
2017-09-03T06:24:52.156Z,77.80
2017-09-03T06:27:20.866Z,78.20
2017-09-03T06:29:48.467Z,78.30
2017-09-03T06:32:16.059Z,78.20
2017-09-03T06:34:43.685Z,77.80
2017-09-03T06:37:11.293Z,77.90
2017-09-03T06:39:39.811Z,78.20
2017-09-03T06:42:07.424Z,78.40
2017-09-03T06:44:35.312Z,77.80
2017-09-03T06:47:03.808Z,78.70
2017-09-03T06:49:31.423Z,78.70
2017-09-03T06:51:59.028Z,78.00
2017-09-03T06:54:26.648Z,77.60
2017-09-03T06:56:54.240Z,77.00
2017-09-03T06:59:21.960Z,77.10
2017-09-03T07:01:49.654Z,77.50
2017-09-03T07:04:17.243Z,76.20
2017-09-03T07:06:44.872Z,77.10
2017-09-03T07:09:12.472Z,76.50
2017-09-03T07:11:40.632Z,76.30
2017-09-03T07:14:08.222Z,76.60
2017-09-03T07:16:35.851Z,76.60
2017-09-03T07:19:03.466Z,75.50
2017-09-03T07:21:31.107Z,75.60
2017-09-03T07:23:58.709Z,76.30
2017-09-03T07:26:26.428Z,76.80
2017-09-03T07:28:54.129Z,77.10
2017-09-03T07:31:22.559Z,76.50
2017-09-03T07:33:50.156Z,76.50
2017-09-03T07:36:17.801Z,77.40
2017-09-03T07:38:45.399Z,77.00
2017-09-03T07:41:12.992Z,75.90
2017-09-03T07:43:41.367Z,75.10
2017-09-03T07:46:09.723Z,74.90
2017-09-03T07:48:37.353Z,74.90
2017-09-03T07:51:04.955Z,74.40
2017-09-03T07:53:32.568Z,76.00
2017-09-03T07:56:00.286Z,74.10
2017-09-03T07:58:27.930Z,74.70
2017-09-03T08:00:55.545Z,75.30
2017-09-03T08:03:23.171Z,74.60
2017-09-03T08:05:50.770Z,74.50
2017-09-03T08:08:20.641Z,74.60
2017-09-03T08:10:49.037Z,73.30
2017-09-03T08:13:16.681Z,72.50
2017-09-03T08:15:44.283Z,72.00
2017-09-03T08:18:11.908Z,73.60
2017-09-03T08:20:39.511Z,72.30
2017-09-03T08:23:07.133Z,71.20
2017-09-03T08:25:34.763Z,68.60
2017-09-03T08:28:02.355Z,67.70
2017-09-03T08:30:29.992Z,67.30
2017-09-03T08:32:57.614Z,67.40
2017-09-03T08:35:25.267Z,67.90
2017-09-03T08:37:52.871Z,66.60
2017-09-03T08:40:20.496Z,68.40
2017-09-03T08:42:48.096Z,67.50
2017-09-03T08:45:15.735Z,66.00
2017-09-03T08:47:43.319Z,65.30
2017-09-03T08:50:10.947Z,65.30
2017-09-03T08:52:38.544Z,66.20
2017-09-03T08:55:06.531Z,66.30
2017-09-03T08:57:34.128Z,65.40
2017-09-03T09:00:01.746Z,66.50
2017-09-03T09:02:29.340Z,65.80
2017-09-03T09:04:56.956Z,66.20
2017-09-03T09:07:24.556Z,65.90
2017-09-03T09:09:52.174Z,66.20
2017-09-03T09:12:19.777Z,66.90
2017-09-03T09:14:47.437Z,66.60
2017-09-03T09:17:15.059Z,67.30
2017-09-03T09:19:42.661Z,66.90
2017-09-03T09:22:10.279Z,67.30
2017-09-03T09:24:37.888Z,66.80
2017-09-03T09:27:05.519Z,66.10
2017-09-03T09:29:34.021Z,65.60
2017-09-03T09:32:01.639Z,65.30
2017-09-03T09:34:29.257Z,64.70
2017-09-03T09:36:56.868Z,65.00
2017-09-03T09:39:25.255Z,64.40
2017-09-03T09:41:52.872Z,64.40
2017-09-03T09:44:21.932Z,64.20
2017-09-03T09:46:49.570Z,64.30
2017-09-03T09:49:17.169Z,63.40
2017-09-03T09:51:44.814Z,61.30
2017-09-03T09:54:12.436Z,62.00
2017-09-03T09:56:40.079Z,60.80
2017-09-03T09:59:08.466Z,59.50
2017-09-03T10:01:36.103Z,59.50
2017-09-03T10:04:03.714Z,58.90
2017-09-03T10:06:31.336Z,59.90
2017-09-03T10:08:58.927Z,59.60
2017-09-03T10:11:26.530Z,59.00
2017-09-03T10:13:54.161Z,60.00
2017-09-03T10:16:21.770Z,58.80
2017-09-03T10:18:49.393Z,58.80
2017-09-03T10:21:17.009Z,58.80
2017-09-03T10:23:44.631Z,58.40
2017-09-03T10:26:13.210Z,57.80
2017-09-03T10:28:40.961Z,56.90
2017-09-03T10:31:08.571Z,58.10
2017-09-03T10:33:36.639Z,59.00
2017-09-03T10:36:04.244Z,57.90
2017-09-03T10:38:31.864Z,59.70
2017-09-03T10:40:59.476Z,57.70
2017-09-03T10:43:27.111Z,57.50
2017-09-03T10:45:54.704Z,59.00
2017-09-03T10:48:22.317Z,58.10
2017-09-03T10:50:51.023Z,56.50
2017-09-03T10:53:18.648Z,57.00
2017-09-03T10:55:46.258Z,57.90
2017-09-03T10:58:13.888Z,58.00
2017-09-03T11:00:44.493Z,58.70
2017-09-03T11:03:12.130Z,58.40
2017-09-03T11:05:39.733Z,57.90
2017-09-03T11:08:07.349Z,59.40
2017-09-03T11:10:34.973Z,58.40
2017-09-03T11:13:02.570Z,58.90
2017-09-03T11:15:30.196Z,57.00
2017-09-03T11:17:57.811Z,56.40
2017-09-03T11:20:27.034Z,56.60
2017-09-03T11:22:54.837Z,56.80
2017-09-03T11:25:22.474Z,57.70
2017-09-03T11:27:50.068Z,57.30
2017-09-03T11:30:17.724Z,55.30
2017-09-03T11:32:45.329Z,55.40
2017-09-03T11:35:12.984Z,56.20
2017-09-03T11:37:41.338Z,56.70
2017-09-03T11:40:08.985Z,56.70
2017-09-03T11:42:37.393Z,56.90
2017-09-03T11:45:05.794Z,57.00
2017-09-03T11:47:33.492Z,57.00
2017-09-03T11:50:01.110Z,57.90
2017-09-03T11:52:28.726Z,58.70
2017-09-03T11:54:56.345Z,59.30
2017-09-03T11:57:23.953Z,59.00
2017-09-03T11:59:52.343Z,58.30
2017-09-03T12:02:19.944Z,58.30
2017-09-03T12:04:47.536Z,58.80
2017-09-03T12:07:15.193Z,58.30
2017-09-03T12:09:42.804Z,58.20
2017-09-03T12:12:10.428Z,58.40
2017-09-03T12:14:38.025Z,59.00
2017-09-03T12:17:06.403Z,58.70
2017-09-03T12:19:34.013Z,58.70
2017-09-03T12:22:01.638Z,58.00
2017-09-03T12:24:29.278Z,58.00
2017-09-03T12:26:56.899Z,56.80
2017-09-03T12:29:24.505Z,56.30
2017-09-03T12:31:52.132Z,57.50
2017-09-03T12:34:21.643Z,57.70
2017-09-03T12:36:50.027Z,58.10
2017-09-03T12:39:17.633Z,58.10
2017-09-03T12:41:45.265Z,58.10
2017-09-03T12:44:14.110Z,56.90
2017-09-03T12:46:41.779Z,56.80
2017-09-03T12:49:09.368Z,55.10
2017-09-03T12:51:36.975Z,56.00
2017-09-03T12:54:04.636Z,55.60
2017-09-03T12:56:32.261Z,52.10
2017-09-03T12:58:59.876Z,52.00
2017-09-03T13:01:27.470Z,53.70
2017-09-03T13:03:55.113Z,55.40
2017-09-03T13:06:23.478Z,50.40
2017-09-03T13:08:51.113Z,50.90
2017-09-03T13:11:18.703Z,49.90
2017-09-03T13:13:46.336Z,49.90
2017-09-03T13:16:13.939Z,51.40
2017-09-03T13:18:41.599Z,52.80
2017-09-03T13:21:09.204Z,52.20
2017-09-03T13:23:36.836Z,51.80
2017-09-03T13:26:05.206Z,49.40
2017-09-03T13:28:33.594Z,48.00
2017-09-03T13:31:01.180Z,47.90
2017-09-03T13:33:29.157Z,47.30
2017-09-03T13:35:56.760Z,47.80
2017-09-03T13:38:24.441Z,48.10
2017-09-03T13:40:52.031Z,49.10
2017-09-03T13:43:19.648Z,49.50
2017-09-03T13:45:48.114Z,48.90
2017-09-03T13:48:15.732Z,48.80
2017-09-03T13:50:43.373Z,48.70
2017-09-03T13:53:10.988Z,50.00
2017-09-03T13:55:38.583Z,49.10
2017-09-03T13:58:06.968Z,51.60
2017-09-03T14:00:35.334Z,51.30
2017-09-03T14:03:02.956Z,51.30
2017-09-03T14:05:30.544Z,51.70
2017-09-03T14:07:58.166Z,54.10
2017-09-03T14:10:25.769Z,54.80
2017-09-03T14:12:53.391Z,55.60
2017-09-03T14:15:20.984Z,56.40
2017-09-03T14:17:48.571Z,56.20
2017-09-03T14:20:16.961Z,56.50
2017-09-03T14:22:44.560Z,56.50
2017-09-03T14:25:12.185Z,56.30
2017-09-03T14:27:39.781Z,56.90
2017-09-03T14:30:07.392Z,56.10
2017-09-03T14:32:35.744Z,55.70
2017-09-03T14:35:03.412Z,55.70
2017-09-03T14:37:30.999Z,57.20
2017-09-03T14:39:59.381Z,59.10
2017-09-03T14:42:27.005Z,59.10
2017-09-03T14:44:54.617Z,60.90
2017-09-03T14:47:22.225Z,62.20
2017-09-03T14:49:49.828Z,62.30
2017-09-03T14:52:17.460Z,63.40
2017-09-03T14:54:45.061Z,63.10
2017-09-03T14:57:12.676Z,63.60
2017-09-03T14:59:40.313Z,63.60
2017-09-03T15:02:08.706Z,64.30
2017-09-03T15:04:37.068Z,64.00
2017-09-03T15:07:04.700Z,64.00
2017-09-03T15:09:32.280Z,64.40
2017-09-03T15:11:59.901Z,65.50
2017-09-03T15:14:28.248Z,63.10
2017-09-03T15:16:55.860Z,63.00
2017-09-03T15:19:24.308Z,63.40
2017-09-03T15:21:53.451Z,66.10
2017-09-03T15:24:21.092Z,66.10
2017-09-03T15:26:48.733Z,66.50
2017-09-03T15:29:16.771Z,66.10
2017-09-03T15:31:44.515Z,66.40
2017-09-03T15:34:13.157Z,66.30
2017-09-03T15:36:41.512Z,66.30
2017-09-03T15:39:09.119Z,66.30
2017-09-03T15:41:36.703Z,66.30
2017-09-03T15:44:04.454Z,65.20
2017-09-03T15:46:32.332Z,64.30
2017-09-03T15:49:00.185Z,63.30
2017-09-03T15:51:27.791Z,63.00
2017-09-03T15:53:55.403Z,62.80
2017-09-03T15:56:23.022Z,61.10
2017-09-03T15:58:50.664Z,60.70
2017-09-03T16:01:18.253Z,61.40
2017-09-03T16:03:45.904Z,61.70
2017-09-03T16:06:13.499Z,61.10
2017-09-03T16:08:41.118Z,61.00
2017-09-03T16:11:08.715Z,61.90
2017-09-03T16:13:36.335Z,63.10
2017-09-03T16:16:04.097Z,63.80
2017-09-03T16:18:32.525Z,62.90
2017-09-03T16:21:00.110Z,62.90
2017-09-03T16:23:27.741Z,63.30
2017-09-03T16:25:56.100Z,65.40
2017-09-03T16:28:23.704Z,65.30
2017-09-03T16:30:51.353Z,66.20
2017-09-03T16:33:18.969Z,67.10
2017-09-03T16:35:46.556Z,67.50
2017-09-03T16:38:14.179Z,68.00
2017-09-03T16:40:41.788Z,67.60
2017-09-03T16:43:09.411Z,67.80
2017-09-03T16:45:37.029Z,68.10
2017-09-03T16:48:04.644Z,68.10
2017-09-03T16:50:32.543Z,68.10
2017-09-03T16:53:00.187Z,68.40
2017-09-03T16:55:28.559Z,68.00
2017-09-03T16:57:56.628Z,68.00
2017-09-03T17:00:24.266Z,67.80
2017-09-03T17:02:51.859Z,67.90
2017-09-03T17:05:19.512Z,67.60
2017-09-03T17:07:47.095Z,67.30
2017-09-03T17:10:14.717Z,68.10
2017-09-03T17:12:42.307Z,68.60
2017-09-03T17:15:09.931Z,68.60
2017-09-03T17:17:37.536Z,68.00
2017-09-03T17:20:05.165Z,68.80
2017-09-03T17:22:33.527Z,69.50
2017-09-03T17:25:01.139Z,69.30
2017-09-03T17:27:28.752Z,69.50
2017-09-03T17:30:16.564Z,70.00
2017-09-03T17:32:44.344Z,70.00
2017-09-03T17:35:13.370Z,69.60
2017-09-03T17:37:44.339Z,69.40
2017-09-03T17:40:14.990Z,69.30
2017-09-03T17:42:47.600Z,69.50
2017-09-03T17:45:15.224Z,69.60
2017-09-03T17:47:42.814Z,69.70
2017-09-03T17:50:10.748Z,69.90
2017-09-03T17:52:38.423Z,69.90
2017-09-03T17:55:06.019Z,69.90
2017-09-03T17:57:33.645Z,70.00
2017-09-03T18:00:01.246Z,70.40
2017-09-03T18:02:29.625Z,71.10
2017-09-03T18:04:57.590Z,71.10
2017-09-03T18:07:25.204Z,71.60
2017-09-03T18:09:52.804Z,72.00
2017-09-03T18:12:23.984Z,72.20
2017-09-03T18:14:52.300Z,72.30
2017-09-03T18:17:19.961Z,72.60
2017-09-03T18:19:47.547Z,72.50
2017-09-03T18:22:15.175Z,72.00
2017-09-03T18:24:42.766Z,71.90
2017-09-03T18:27:10.390Z,71.30
2017-09-03T18:29:43.503Z,70.90
2017-09-03T18:32:11.415Z,70.80
2017-09-03T18:34:39.007Z,70.90
2017-09-03T18:37:10.216Z,70.90
2017-09-03T18:39:38.297Z,71.20
2017-09-03T18:42:16.942Z,71.30
2017-09-03T18:44:44.520Z,71.50
2017-09-03T18:47:12.128Z,71.80
2017-09-03T18:49:44.773Z,71.80
2017-09-03T18:52:27.285Z,72.10
2017-09-03T18:54:54.882Z,72.20
2017-09-03T19:00:33.157Z,71.60
2017-09-03T19:03:04.714Z,71.60
2017-09-03T19:05:33.816Z,71.40
2017-09-03T19:08:01.432Z,71.40
2017-09-03T19:10:29.059Z,71.10
2017-09-03T19:12:56.687Z,70.50
2017-09-03T19:15:24.277Z,68.90
2017-09-03T19:17:52.973Z,69.80
2017-09-03T19:20:21.354Z,70.30
2017-09-03T19:22:48.966Z,70.30
2017-09-03T19:25:16.573Z,70.30
2017-09-03T19:27:44.190Z,70.60
2017-09-03T19:30:11.793Z,70.70
2017-09-03T19:32:40.123Z,70.20
2017-09-03T19:35:07.834Z,70.00
2017-09-03T19:37:37.137Z,69.80
2017-09-03T19:40:04.727Z,70.40
2017-09-03T19:42:32.410Z,70.80
2017-09-03T19:44:59.999Z,71.40
2017-09-03T19:47:27.675Z,72.00
2017-09-03T19:49:56.017Z,72.20
2017-09-03T19:52:23.617Z,72.00
2017-09-03T19:54:51.238Z,70.40
2017-09-03T19:57:19.768Z,70.60
2017-09-03T19:59:48.158Z,71.10
2017-09-03T20:02:15.763Z,71.10
2017-09-03T20:04:43.383Z,71.90
2017-09-03T20:07:10.975Z,72.20
2017-09-03T20:09:38.603Z,72.00
2017-09-03T20:12:06.191Z,71.80
2017-09-03T20:14:33.812Z,71.40
2017-09-03T20:17:01.409Z,71.40
2017-09-03T20:19:29.068Z,72.00
2017-09-03T20:21:56.679Z,72.70
2017-09-03T20:24:24.295Z,71.90
2017-09-03T20:26:51.902Z,71.80
2017-09-03T20:29:20.287Z,71.50
2017-09-03T20:31:48.663Z,71.10
2017-09-03T20:34:16.292Z,71.00
2017-09-03T20:36:43.881Z,71.20
2017-09-03T20:39:11.532Z,71.60
2017-09-03T20:41:39.173Z,72.30
2017-09-03T20:44:06.764Z,71.50
2017-09-03T20:46:35.167Z,71.60
2017-09-03T20:49:02.748Z,71.60
2017-09-03T20:51:30.371Z,71.30
2017-09-03T20:53:58.748Z,71.30
2017-09-03T20:56:27.128Z,71.40
2017-09-03T20:58:55.184Z,71.40
2017-09-03T21:01:22.805Z,72.80
2017-09-03T21:03:50.412Z,71.90
2017-09-03T21:06:18.019Z,71.80
2017-09-03T21:08:45.624Z,72.20
2017-09-03T21:11:13.244Z,72.20
2017-09-03T21:13:41.603Z,71.80
2017-09-03T21:16:09.219Z,71.70
2017-09-03T21:18:36.836Z,70.90
2017-09-03T21:21:04.427Z,70.70
2017-09-03T21:23:32.079Z,71.10
2017-09-03T21:25:59.672Z,71.30
2017-09-03T21:28:27.302Z,71.70
2017-09-03T21:30:54.889Z,72.70
2017-09-03T21:33:22.533Z,71.80
2017-09-03T21:35:50.150Z,71.80
2017-09-03T21:38:17.777Z,71.70
2017-09-03T21:40:45.415Z,71.60
2017-09-03T21:43:13.035Z,71.40
2017-09-03T21:45:40.654Z,71.40
2017-09-03T21:48:08.267Z,71.50
2017-09-03T21:50:35.872Z,71.60
2017-09-03T21:53:03.488Z,71.40
2017-09-03T21:55:31.095Z,70.90
2017-09-03T21:57:58.703Z,71.30
2017-09-03T22:00:26.315Z,70.60
2017-09-03T22:02:53.947Z,70.30
2017-09-03T22:05:21.546Z,70.80
2017-09-03T22:07:49.155Z,70.70
2017-09-03T22:10:16.855Z,70.70
2017-09-03T22:12:44.462Z,70.90
2017-09-03T22:15:12.075Z,70.80
2017-09-03T22:17:39.667Z,70.80
2017-09-03T22:20:08.048Z,70.70
2017-09-03T22:22:35.640Z,70.70
2017-09-03T22:25:04.041Z,70.20
2017-09-03T22:27:31.624Z,70.20
2017-09-03T22:29:59.236Z,70.10
2017-09-03T22:32:26.844Z,70.00
2017-09-03T22:34:54.486Z,70.30
2017-09-03T22:37:22.085Z,70.40
2017-09-03T22:39:49.703Z,70.60
2017-09-03T22:42:17.295Z,71.40
2017-09-03T22:44:44.925Z,70.90
2017-09-03T22:47:12.524Z,71.20
2017-09-03T22:49:40.144Z,70.90
2017-09-03T22:52:07.736Z,70.90
2017-09-03T22:54:35.371Z,70.70
2017-09-03T22:57:02.976Z,70.70
2017-09-03T22:59:31.364Z,71.00
2017-09-03T23:01:59.726Z,70.70
2017-09-03T23:04:27.363Z,70.70
2017-09-03T23:06:54.949Z,70.40
2017-09-03T23:09:22.540Z,70.50
2017-09-03T23:11:50.155Z,70.40
2017-09-03T23:14:17.751Z,70.40
2017-09-03T23:16:45.372Z,71.40
2017-09-03T23:19:12.966Z,70.50
2017-09-03T23:21:41.343Z,70.90
2017-09-03T23:24:09.707Z,70.80
2017-09-03T23:26:37.328Z,70.80
2017-09-03T23:29:04.927Z,71.10
2017-09-03T23:31:32.549Z,70.70
2017-09-03T23:34:00.154Z,70.60
2017-09-03T23:36:27.773Z,70.40
2017-09-03T23:38:55.405Z,70.10
2017-09-03T23:41:23.020Z,69.50
2017-09-03T23:43:50.620Z,69.30
2017-09-03T23:46:18.232Z,69.70
2017-09-03T23:48:45.845Z,70.30
2017-09-03T23:51:13.470Z,71.20
2017-09-03T23:53:41.051Z,72.40
2017-09-03T23:56:08.682Z,72.90
2017-09-03T23:58:36.274Z,72.50
